createdAt,value
2024-03-20T00:00:03.866Z,83
2024-03-20T00:01:01.331Z,82.7
2024-03-20T00:02:01.464Z,82.8
2024-03-20T00:03:01.524Z,82.5
2024-03-20T00:04:03.236Z,82.8
2024-03-20T00:05:03.457Z,82.9
2024-03-20T00:06:03.518Z,82.7
2024-03-20T00:07:03.648Z,82.4
2024-03-20T00:08:03.747Z,82.4
2024-03-20T00:09:02.183Z,82
2024-03-20T00:10:02.937Z,81.5
2024-03-20T00:11:01.394Z,82.4
2024-03-20T00:12:03.150Z,82.7
2024-03-20T00:13:03.248Z,83.2
2024-03-20T00:14:03.334Z,83.3
2024-03-20T00:15:01.846Z,82.8
2024-03-20T00:16:01.927Z,82.9
2024-03-20T00:17:02.032Z,83
2024-03-20T00:18:03.806Z,83.3
2024-03-20T00:19:02.241Z,83.5
2024-03-20T00:20:01.421Z,83.6
2024-03-20T00:21:01.443Z,83.7
2024-03-20T00:22:01.538Z,83.4
2024-03-20T00:23:01.648Z,82.9
2024-03-20T00:24:03.459Z,83.5
2024-03-20T00:25:03.521Z,83.6
2024-03-20T00:26:01.962Z,83.4
2024-03-20T00:27:02.091Z,83.2
2024-03-20T00:28:02.178Z,82.9
2024-03-20T00:29:02.947Z,83
2024-03-20T00:30:01.404Z,82.9
2024-03-20T00:31:03.131Z,82.6
2024-03-20T00:32:03.229Z,83.3
2024-03-20T00:33:03.322Z,83.8
2024-03-20T00:34:01.800Z,83.6
2024-03-20T00:35:01.946Z,83.5
2024-03-20T00:36:02.019Z,83.2
2024-03-20T00:37:02.146Z,82.7
2024-03-20T00:38:02.255Z,82.6
2024-03-20T00:39:02.990Z,82.5
2024-03-20T00:40:01.482Z,82.5
2024-03-20T00:41:01.551Z,83.2
2024-03-20T00:42:01.658Z,83.5
2024-03-20T00:43:03.417Z,83.6
2024-03-20T00:44:01.864Z,83.4
2024-03-20T00:45:02.021Z,83.4
2024-03-20T00:46:02.074Z,83.5
2024-03-20T00:47:03.842Z,83.5
2024-03-20T00:48:01.274Z,83.3
2024-03-20T00:49:01.423Z,83.2
2024-03-20T00:50:01.527Z,83.6
2024-03-20T00:51:01.632Z,83.9
2024-03-20T00:52:03.294Z,83.2
2024-03-20T00:53:03.422Z,83.4
2024-03-20T00:54:03.648Z,82.9
2024-03-20T00:55:03.756Z,83.3
2024-03-20T00:56:02.202Z,83.4
2024-03-20T00:57:01.257Z,83.5
2024-03-20T00:58:01.357Z,83.9
2024-03-20T00:59:03.094Z,84
2024-03-20T01:00:01.589Z,83.7
2024-03-20T01:01:01.709Z,83.7
2024-03-20T01:02:01.800Z,83.5
2024-03-20T01:03:03.585Z,83.5
2024-03-20T01:04:03.622Z,84
2024-03-20T01:05:02.089Z,83.6
2024-03-20T01:06:02.257Z,83.3
2024-03-20T01:07:01.321Z,83.4
2024-03-20T01:08:03.053Z,84.2
2024-03-20T01:09:01.513Z,84.4
2024-03-20T01:10:01.641Z,84.4
2024-03-20T01:11:03.377Z,84.8
2024-03-20T01:12:01.839Z,85
2024-03-20T01:13:03.605Z,85
2024-03-20T01:14:02.062Z,84.7
2024-03-20T01:15:03.792Z,84.4
2024-03-20T01:16:02.267Z,84.5
2024-03-20T01:17:01.346Z,84.5
2024-03-20T01:18:02.721Z,84.5
2024-03-20T01:19:03.199Z,84.7
2024-03-20T01:20:03.298Z,85.1
2024-03-20T01:21:01.780Z,84.9
2024-03-20T01:22:01.888Z,84.4
2024-03-20T01:23:03.610Z,84.2
2024-03-20T01:24:02.094Z,84.1
2024-03-20T01:25:02.226Z,84.2
2024-03-20T01:26:02.973Z,83.8
2024-03-20T01:27:03.072Z,83.6
2024-03-20T01:28:01.540Z,83.8
2024-03-20T01:29:01.674Z,84.4
2024-03-20T01:30:01.747Z,84.7
2024-03-20T01:31:03.498Z,84.9
2024-03-20T01:32:01.935Z,84.7
2024-03-20T01:33:03.717Z,84.3
2024-03-20T01:34:02.142Z,84.6
2024-03-20T01:35:03.892Z,84.7
2024-03-20T01:36:02.975Z,85.2
2024-03-20T01:37:01.452Z,85.4
2024-03-20T01:38:01.534Z,85.3
2024-03-20T01:39:01.677Z,84.5
2024-03-20T01:40:03.469Z,84.5
2024-03-20T01:41:01.892Z,84.7
2024-03-20T01:42:02.004Z,84.9
2024-03-20T01:43:03.720Z,84.7
2024-03-20T01:44:02.215Z,85.1
2024-03-20T01:45:02.940Z,85.3
2024-03-20T01:46:01.424Z,85.3
2024-03-20T01:47:03.126Z,85.7
2024-03-20T01:48:03.228Z,85.7
2024-03-20T01:49:01.717Z,85.6
2024-03-20T01:50:01.862Z,85.9
2024-03-20T01:51:03.580Z,86.1
2024-03-20T01:52:03.711Z,85.8
2024-03-20T01:53:03.775Z,85.6
2024-03-20T01:54:03.899Z,85.1
2024-03-20T01:55:02.976Z,84.7
2024-03-20T01:56:03.061Z,84.7
2024-03-20T01:57:03.174Z,84.7
2024-03-20T01:58:01.642Z,85
2024-03-20T01:59:01.737Z,84.9
2024-03-20T02:00:03.549Z,85
2024-03-20T02:01:01.972Z,85
2024-03-20T02:02:03.711Z,84.8
2024-03-20T02:03:02.211Z,85
2024-03-20T02:04:01.308Z,84.9
2024-03-20T02:05:03.089Z,85
2024-03-20T02:06:03.169Z,85.2
2024-03-20T02:07:03.263Z,85.2
2024-03-20T02:08:03.355Z,85.2
2024-03-20T02:09:03.451Z,85.5
2024-03-20T02:10:01.913Z,85.7
2024-03-20T02:11:02.052Z,85.3
2024-03-20T02:12:03.764Z,85.3
2024-03-20T02:13:03.874Z,85.4
2024-03-20T02:14:01.336Z,85.7
2024-03-20T02:15:03.068Z,86
2024-03-20T02:16:01.552Z,85.5
2024-03-20T02:17:03.320Z,85.5
2024-03-20T02:18:03.381Z,85.5
2024-03-20T02:19:01.896Z,85.9
2024-03-20T02:20:01.978Z,86.2
2024-03-20T02:21:03.699Z,86.4
2024-03-20T02:22:03.867Z,86.5
2024-03-20T02:23:01.278Z,86.3
2024-03-20T02:24:01.395Z,86
2024-03-20T02:25:01.469Z,85.9
2024-03-20T02:26:01.572Z,85.7
2024-03-20T02:27:03.352Z,85.7
2024-03-20T02:28:03.446Z,85.7
2024-03-20T02:29:01.880Z,85.5
2024-03-20T02:30:02.033Z,85.7
2024-03-20T02:31:02.118Z,85.7
2024-03-20T02:32:02.221Z,85.7
2024-03-20T02:33:02.988Z,85.3
2024-03-20T02:34:01.452Z,85.7
2024-03-20T02:35:03.199Z,86
2024-03-20T02:36:01.649Z,86.1
2024-03-20T02:37:01.766Z,86.1
2024-03-20T02:38:03.533Z,86.1
2024-03-20T02:39:01.971Z,86
2024-03-20T02:40:03.708Z,86
2024-03-20T02:41:02.180Z,86
2024-03-20T02:42:01.290Z,85.9
2024-03-20T02:43:03.028Z,85.9
2024-03-20T02:44:01.498Z,85.9
2024-03-20T02:45:01.660Z,86
2024-03-20T02:46:03.323Z,86.2
2024-03-20T02:47:01.803Z,86.4
2024-03-20T02:48:01.943Z,86.6
2024-03-20T02:49:03.700Z,86.6
2024-03-20T02:50:02.126Z,86.4
2024-03-20T02:51:03.922Z,86.3
2024-03-20T02:52:01.324Z,86.3
2024-03-20T02:53:01.444Z,86.1
2024-03-20T02:54:03.263Z,85.7
2024-03-20T02:55:03.256Z,85.8
2024-03-20T02:56:01.740Z,86.1
2024-03-20T02:57:01.871Z,86.2
2024-03-20T02:58:03.603Z,86.2
2024-03-20T02:59:03.697Z,86.2
2024-03-20T03:00:02.153Z,86.3
2024-03-20T03:01:02.896Z,86.2
2024-03-20T03:02:03.007Z,86.2
2024-03-20T03:03:01.487Z,86.2
2024-03-20T03:04:01.573Z,86
2024-03-20T03:05:03.344Z,86
2024-03-20T03:06:03.452Z,85.7
2024-03-20T03:07:03.555Z,85.5
2024-03-20T03:08:02.031Z,85.4
2024-03-20T03:09:03.794Z,85.5
2024-03-20T03:10:03.893Z,85.8
2024-03-20T03:11:01.321Z,85.7
2024-03-20T03:12:01.461Z,85.7
2024-03-20T03:13:01.533Z,85.8
2024-03-20T03:14:01.623Z,85.9
2024-03-20T03:15:07.238Z,85.9
2024-03-20T03:16:01.890Z,86.1
2024-03-20T03:17:03.634Z,86.3
2024-03-20T03:18:02.089Z,86.5
2024-03-20T03:19:03.842Z,86.5
2024-03-20T03:20:02.933Z,86.3
2024-03-20T03:21:03.000Z,86
2024-03-20T03:22:01.483Z,86.1
2024-03-20T03:23:03.222Z,86.5
2024-03-20T03:24:01.706Z,86.4
2024-03-20T03:25:01.849Z,86.4
2024-03-20T03:26:03.584Z,86.4
2024-03-20T03:27:02.001Z,86.1
2024-03-20T03:28:02.122Z,86.3
2024-03-20T03:29:02.210Z,86.4
2024-03-20T03:30:01.316Z,86.3
2024-03-20T03:31:01.466Z,86.1
2024-03-20T03:32:01.579Z,86
2024-03-20T03:33:03.299Z,86.2
2024-03-20T03:34:01.782Z,86.4
2024-03-20T03:35:03.491Z,86.2
2024-03-20T03:36:03.604Z,85.9
2024-03-20T03:37:03.729Z,86
2024-03-20T03:38:02.189Z,85.9
2024-03-20T03:39:02.911Z,86
2024-03-20T03:40:03.082Z,86
2024-03-20T03:41:01.481Z,86.1
2024-03-20T03:42:01.602Z,86.3
2024-03-20T03:43:01.723Z,86.4
2024-03-20T03:44:03.412Z,86.3
2024-03-20T03:45:01.929Z,86.1
2024-03-20T03:46:02.022Z,86.1
2024-03-20T03:47:03.773Z,86.3
2024-03-20T03:48:02.264Z,86.3
2024-03-20T03:49:02.964Z,86.2
2024-03-20T03:50:03.077Z,86.2
2024-03-20T03:51:03.196Z,86.6
2024-03-20T03:52:03.348Z,86.7
2024-03-20T03:53:03.382Z,86.5
2024-03-20T03:54:03.482Z,86.8
2024-03-20T03:55:02.001Z,87
2024-03-20T03:56:03.720Z,87.3
2024-03-20T03:57:03.813Z,87.3
2024-03-20T03:58:02.884Z,87.1
2024-03-20T03:59:03.040Z,87.1
2024-03-20T04:00:01.513Z,87.1
2024-03-20T04:01:03.233Z,86.8
2024-03-20T04:02:03.325Z,86.6
2024-03-20T04:03:03.423Z,86.7
2024-03-20T04:04:03.605Z,86.8
2024-03-20T04:05:02.085Z,86.8
2024-03-20T04:06:02.140Z,87
2024-03-20T04:07:01.281Z,87.1
2024-03-20T04:08:01.365Z,87
2024-03-20T04:09:01.492Z,86.7
2024-03-20T04:10:03.198Z,86.6
2024-03-20T04:11:03.381Z,86.5
2024-03-20T04:12:03.434Z,86.6
2024-03-20T04:13:01.921Z,86.7
2024-03-20T04:14:03.641Z,86.6
2024-03-20T04:15:03.757Z,86.4
2024-03-20T04:16:02.225Z,86.2
2024-03-20T04:17:01.317Z,85.9
2024-03-20T04:18:01.452Z,86.2
2024-03-20T04:19:03.170Z,86.4
2024-03-20T04:20:01.645Z,86.5
2024-03-20T04:21:01.735Z,86.8
2024-03-20T04:22:03.518Z,87
2024-03-20T04:23:03.623Z,87.1
2024-03-20T04:24:03.674Z,87.2
2024-03-20T04:25:03.797Z,87.3
2024-03-20T04:26:03.003Z,87.2
2024-03-20T04:27:03.014Z,87.2
2024-03-20T04:28:01.482Z,87.3
2024-03-20T04:29:01.597Z,87.4
2024-03-20T04:30:03.325Z,87.4
2024-03-20T04:31:01.787Z,87.6
2024-03-20T04:32:01.927Z,87.7
2024-03-20T04:33:01.991Z,87.9
2024-03-20T04:34:03.768Z,88
2024-03-20T04:35:02.228Z,88
2024-03-20T04:36:01.325Z,88
2024-03-20T04:37:03.105Z,88
2024-03-20T04:38:03.158Z,88
2024-03-20T04:39:03.266Z,88.1
2024-03-20T04:40:01.743Z,88.1
2024-03-20T04:41:03.484Z,88.3
2024-03-20T04:42:01.958Z,88.3
2024-03-20T04:43:03.702Z,88.5
2024-03-20T04:44:02.153Z,88.7
2024-03-20T04:45:03.634Z,89
2024-03-20T04:46:01.355Z,89.1
2024-03-20T04:47:03.155Z,89.4
2024-03-20T04:48:03.193Z,89.5
2024-03-20T04:49:01.666Z,89.5
2024-03-20T04:50:01.758Z,89.5
2024-03-20T04:51:03.490Z,89.6
2024-03-20T04:52:02.024Z,89.8
2024-03-20T04:53:02.140Z,89.8
2024-03-20T04:54:03.884Z,89.7
2024-03-20T04:55:02.962Z,89.8
2024-03-20T04:56:03.085Z,89.9
2024-03-20T04:57:01.514Z,90
2024-03-20T04:58:03.274Z,90
2024-03-20T04:59:01.741Z,90
2024-03-20T05:00:03.475Z,89.9
2024-03-20T05:01:03.588Z,89.7
2024-03-20T05:02:03.680Z,89.7
2024-03-20T05:03:03.778Z,89.6
2024-03-20T05:04:02.249Z,89.5
2024-03-20T05:05:01.367Z,89.4
2024-03-20T05:06:03.127Z,89.4
2024-03-20T05:07:01.542Z,89.4
2024-03-20T05:08:01.680Z,89.4
2024-03-20T05:09:01.778Z,89.4
2024-03-20T05:10:01.878Z,89.4
2024-03-20T05:11:02.023Z,89.4
2024-03-20T05:12:02.143Z,89.5
2024-03-20T05:13:02.196Z,89.5
2024-03-20T05:14:02.936Z,89.5
2024-03-20T05:15:01.416Z,89.5
2024-03-20T05:16:03.164Z,89.5
2024-03-20T05:17:03.236Z,89.4
2024-03-20T05:18:01.711Z,89.5
2024-03-20T05:19:03.468Z,89.5
2024-03-20T05:20:01.929Z,89.4
2024-03-20T05:21:03.681Z,89.4
2024-03-20T05:22:02.145Z,89.4
2024-03-20T05:23:02.253Z,89.3
2024-03-20T05:24:01.371Z,89.2
2024-03-20T05:25:03.060Z,89.2
2024-03-20T05:26:03.160Z,89.2
2024-03-20T05:27:01.703Z,89.2
2024-03-20T05:28:03.412Z,89.3
2024-03-20T05:29:01.862Z,89.4
2024-03-20T05:30:01.988Z,89.4
2024-03-20T05:31:03.705Z,89.5
2024-03-20T05:32:03.828Z,89.5
2024-03-20T05:33:02.924Z,89.5
2024-03-20T05:34:01.373Z,89.5
2024-03-20T05:35:01.482Z,89.6
2024-03-20T05:36:01.584Z,89.5
2024-03-20T05:37:01.720Z,89.5
2024-03-20T05:38:03.451Z,89.6
2024-03-20T05:39:01.923Z,89.6
2024-03-20T05:40:03.678Z,89.5
2024-03-20T05:41:02.168Z,89.4
2024-03-20T05:42:02.289Z,89.3
2024-03-20T05:43:01.299Z,89.1
2024-03-20T05:44:01.471Z,89
2024-03-20T05:45:01.543Z,88.7
2024-03-20T05:46:03.317Z,88.6
2024-03-20T05:47:01.776Z,88.5
2024-03-20T05:48:03.510Z,88.2
2024-03-20T05:49:03.623Z,88.2
2024-03-20T05:50:02.109Z,88.2
2024-03-20T05:51:02.180Z,88.1
2024-03-20T05:52:01.322Z,88
2024-03-20T05:53:01.415Z,88
2024-03-20T05:54:03.136Z,87.8
2024-03-20T05:55:01.644Z,87.7
2024-03-20T05:56:03.347Z,87.7
2024-03-20T05:57:01.842Z,87.7
2024-03-20T05:58:01.944Z,87.5
2024-03-20T05:59:02.063Z,87.3
2024-03-20T06:00:03.828Z,87.3
2024-03-20T06:01:01.252Z,87.3
2024-03-20T06:02:01.350Z,87.3
2024-03-20T06:03:03.115Z,87.3
2024-03-20T06:04:03.198Z,87.3
2024-03-20T06:05:01.678Z,87.2
2024-03-20T06:06:03.434Z,87.2
2024-03-20T06:07:01.910Z,87.2
2024-03-20T06:08:01.989Z,87.2
2024-03-20T06:10:03.867Z,87.3
2024-03-20T06:11:01.300Z,87.2
2024-03-20T06:12:03.053Z,87.1
2024-03-20T06:13:01.523Z,87
2024-03-20T06:14:03.267Z,86.8
2024-03-20T06:15:01.697Z,86.8
2024-03-20T06:16:01.847Z,86.6
2024-03-20T06:17:05.602Z,86.6
2024-03-20T06:18:03.680Z,86.5
2024-03-20T06:19:02.141Z,86.4
2024-03-20T06:20:02.246Z,86.4
2024-03-20T06:21:02.995Z,86.3
2024-03-20T06:22:01.453Z,86.1
2024-03-20T06:23:01.554Z,85.8
2024-03-20T06:24:03.268Z,85.8
2024-03-20T06:25:03.398Z,85.8
2024-03-20T06:26:03.577Z,85.6
2024-03-20T06:27:02.009Z,85.5
2024-03-20T06:28:02.085Z,85.5
2024-03-20T06:29:02.208Z,85.7
2024-03-20T06:30:01.328Z,85.6
2024-03-20T06:31:01.451Z,85.3
2024-03-20T06:32:03.188Z,84.9
2024-03-20T06:33:03.253Z,85
2024-03-20T06:34:03.369Z,85.1
2024-03-20T06:35:01.860Z,85.1
2024-03-20T06:36:01.928Z,84.6
2024-03-20T06:37:02.061Z,84.3
2024-03-20T06:38:03.836Z,84.4
2024-03-20T06:39:01.254Z,84.5
2024-03-20T06:40:01.358Z,84.3
2024-03-20T06:41:01.485Z,84
2024-03-20T06:42:01.584Z,83.9
2024-03-20T06:43:03.319Z,83.9
2024-03-20T06:44:01.777Z,83.9
2024-03-20T06:45:03.515Z,84.1
2024-03-20T06:46:02.005Z,84.2
2024-03-20T06:47:03.769Z,84.3
2024-03-20T06:48:03.844Z,84.5
2024-03-20T06:49:01.325Z,84.4
2024-03-20T06:50:01.424Z,84.6
2024-03-20T06:51:03.133Z,84.7
2024-03-20T06:52:03.283Z,85
2024-03-20T06:53:01.751Z,85.1
2024-03-20T06:54:01.844Z,85.2
2024-03-20T06:55:01.928Z,85.2
2024-03-20T06:56:02.049Z,85.2
2024-03-20T06:57:03.859Z,84.8
2024-03-20T06:58:02.864Z,84.9
2024-03-20T06:59:02.986Z,85
2024-03-20T07:00:03.102Z,85.2
2024-03-20T07:01:03.192Z,85.2
2024-03-20T07:02:01.669Z,85.1
2024-03-20T07:03:01.787Z,84.9
2024-03-20T07:04:01.858Z,85.1
2024-03-20T07:05:03.633Z,84.8
2024-03-20T07:06:02.101Z,84.5
2024-03-20T07:07:03.836Z,84.5
2024-03-20T07:08:01.269Z,83.9
2024-03-20T07:09:03.030Z,83.6
2024-03-20T07:10:01.536Z,83.6
2024-03-20T07:11:01.628Z,83.7
2024-03-20T07:12:01.693Z,83.9
2024-03-20T07:13:03.459Z,84
2024-03-20T07:14:03.644Z,84.1
2024-03-20T07:15:03.720Z,84.2
2024-03-20T07:16:02.179Z,83.7
2024-03-20T07:17:03.173Z,83
2024-03-20T07:18:01.342Z,82.5
2024-03-20T07:19:01.481Z,82.7
2024-03-20T07:20:03.168Z,82.7
2024-03-20T07:21:01.702Z,83.1
2024-03-20T07:22:01.800Z,83.2
2024-03-20T07:23:01.897Z,83
2024-03-20T07:24:03.622Z,82.7
2024-03-20T07:25:02.115Z,82.4
2024-03-20T07:26:03.862Z,82.3
2024-03-20T07:27:01.328Z,82.2
2024-03-20T07:28:01.436Z,82
2024-03-20T07:29:01.524Z,82.2
2024-03-20T07:30:03.257Z,81.9
2024-03-20T07:31:03.597Z,82
2024-03-20T07:32:03.483Z,82.2
2024-03-20T07:33:01.938Z,81.2
2024-03-20T07:34:03.681Z,81
2024-03-20T07:35:02.166Z,81.3
2024-03-20T07:36:01.263Z,81.1
2024-03-20T07:37:01.372Z,80.8
2024-03-20T07:38:03.101Z,80.2
2024-03-20T07:39:03.253Z,80.3
2024-03-20T07:40:03.323Z,80.9
2024-03-20T07:41:01.764Z,80.6
2024-03-20T07:42:01.883Z,80.8
2024-03-20T07:43:02.019Z,80.6
2024-03-20T07:44:03.887Z,80.8
2024-03-20T07:45:03.878Z,79.8
2024-03-20T07:46:01.296Z,79.7
2024-03-20T07:47:01.382Z,79.9
2024-03-20T07:48:01.594Z,80.2
2024-03-20T07:49:03.235Z,78.7
2024-03-20T07:50:03.397Z,78.7
2024-03-20T07:51:01.842Z,78.5
2024-03-20T07:52:03.578Z,78.8
2024-03-20T07:53:03.704Z,78.7
2024-03-20T07:54:02.128Z,78.4
2024-03-20T07:55:03.865Z,78
2024-03-20T07:56:02.972Z,78.8
2024-03-20T07:57:01.451Z,79.6
2024-03-20T07:58:01.548Z,78.8
2024-03-20T07:59:01.701Z,77.9
2024-03-20T08:00:01.765Z,77.9
2024-03-20T08:01:01.853Z,77.3
2024-03-20T08:02:01.959Z,77.2
2024-03-20T08:03:03.742Z,78
2024-03-20T08:04:02.286Z,77.8
2024-03-20T08:05:02.991Z,77.3
2024-03-20T08:06:01.433Z,77.8
2024-03-20T08:07:01.510Z,78
2024-03-20T08:08:01.614Z,78.1
2024-03-20T08:09:03.359Z,77.6
2024-03-20T08:10:03.600Z,77.8
2024-03-20T08:11:01.933Z,78.6
2024-03-20T08:12:02.034Z,77.4
2024-03-20T08:13:03.766Z,76.9
2024-03-20T08:14:02.251Z,77.2
2024-03-20T08:15:03.061Z,76.7
2024-03-20T08:16:01.451Z,76.1
2024-03-20T08:17:01.558Z,76.2
2024-03-20T08:18:01.692Z,76.4
2024-03-20T08:19:03.412Z,76.4
2024-03-20T08:20:03.551Z,75.7
2024-03-20T08:21:03.610Z,74.9
2024-03-20T08:22:02.094Z,74.9
2024-03-20T08:23:03.863Z,74.8
2024-03-20T08:24:01.286Z,75.2
2024-03-20T08:25:01.388Z,75.7
2024-03-20T08:26:03.176Z,75.5
2024-03-20T08:27:01.608Z,74.9
2024-03-20T08:28:03.355Z,74.5
2024-03-20T08:29:01.822Z,73.5
2024-03-20T08:30:03.619Z,74.1
2024-03-20T08:31:02.083Z,74.4
2024-03-20T08:32:02.175Z,74.6
2024-03-20T08:33:03.901Z,74.5
2024-03-20T08:34:01.362Z,73.2
2024-03-20T08:35:01.457Z,72.8
2024-03-20T08:36:03.245Z,73.4
2024-03-20T08:37:03.302Z,74.1
2024-03-20T08:38:01.866Z,73.5
2024-03-20T08:39:03.499Z,72.9
2024-03-20T08:40:03.670Z,72.1
2024-03-20T08:41:02.089Z,72.2
2024-03-20T08:42:06.019Z,72.4
2024-03-20T08:43:05.793Z,72.4
2024-03-20T08:44:01.422Z,72.3
2024-03-20T08:45:01.514Z,71.8
2024-03-20T08:46:01.650Z,72.3
2024-03-20T08:47:03.428Z,72.4
2024-03-20T08:48:03.430Z,73.3
2024-03-20T08:49:01.922Z,72.2
2024-03-20T08:50:02.020Z,71.9
2024-03-20T08:51:03.853Z,71.7
2024-03-20T08:52:02.908Z,71.7
2024-03-20T08:53:01.370Z,71.3
2024-03-20T08:54:03.150Z,71.8
2024-03-20T08:55:03.170Z,72
2024-03-20T08:56:03.301Z,71.5
2024-03-20T08:57:01.759Z,71
2024-03-20T08:58:01.877Z,71.8
2024-03-20T08:59:03.687Z,72.4
2024-03-20T09:00:02.118Z,72.3
2024-03-20T09:01:02.265Z,71.4
2024-03-20T09:02:02.906Z,70.6
2024-03-20T09:03:03.063Z,71.5
2024-03-20T09:04:01.516Z,70.8
2024-03-20T09:05:03.279Z,70.7
2024-03-20T09:06:03.330Z,70.8
2024-03-20T09:07:03.458Z,70.6
2024-03-20T09:08:03.662Z,69.8
2024-03-20T09:09:02.045Z,70.1
2024-03-20T09:10:02.310Z,70.8
2024-03-20T09:11:02.312Z,69.8
2024-03-20T09:12:02.981Z,69.4
2024-03-20T09:13:03.074Z,70
2024-03-20T09:14:03.177Z,71.4
2024-03-20T09:15:01.696Z,69.9
2024-03-20T09:16:01.824Z,69.4
2024-03-20T09:17:01.866Z,70.2
2024-03-20T09:18:03.609Z,70.2
2024-03-20T09:19:02.110Z,69.7
2024-03-20T09:20:02.217Z,70.5
2024-03-20T09:21:01.312Z,70.3
2024-03-20T09:22:03.168Z,69.3
2024-03-20T09:23:01.538Z,70.3
2024-03-20T09:24:01.623Z,68.6
2024-03-20T09:25:01.745Z,68.7
2024-03-20T09:26:03.436Z,68.6
2024-03-20T09:27:04.773Z,67.6
2024-03-20T09:28:03.647Z,68
2024-03-20T09:29:02.130Z,68
2024-03-20T09:30:03.908Z,68
2024-03-20T09:31:03.033Z,68.5
2024-03-20T09:32:03.105Z,67.4
2024-03-20T09:33:01.648Z,67
2024-03-20T09:34:03.338Z,66.6
2024-03-20T09:35:01.766Z,67
2024-03-20T09:36:01.841Z,67.7
2024-03-20T09:37:02.165Z,67.7
2024-03-20T09:38:02.176Z,67.8
2024-03-20T09:39:02.326Z,67.1
2024-03-20T09:40:02.949Z,66.4
2024-03-20T09:41:01.416Z,66.9
2024-03-20T09:42:01.488Z,66.6
2024-03-20T09:43:03.255Z,66.9
2024-03-20T09:44:01.711Z,66.9
2024-03-20T09:45:03.465Z,66.5
2024-03-20T09:46:03.605Z,66.3
2024-03-20T09:47:02.006Z,67.4
2024-03-20T09:48:03.747Z,67.5
2024-03-20T09:49:02.214Z,67.4
2024-03-20T09:50:03.005Z,67.6
2024-03-20T09:51:01.432Z,67.7
2024-03-20T09:52:01.536Z,67.5
2024-03-20T09:53:01.685Z,68
2024-03-20T09:54:01.732Z,66.2
2024-03-20T09:55:01.840Z,67.2
2024-03-20T09:56:03.581Z,66.7
2024-03-20T09:57:02.060Z,65.5
2024-03-20T09:58:03.636Z,66.8
2024-03-20T09:59:01.299Z,66.6
2024-03-20T10:00:03.001Z,65.6
2024-03-20T10:01:03.134Z,65.8
2024-03-20T10:02:01.585Z,65.1
2024-03-20T10:03:03.421Z,65.4
2024-03-20T10:04:01.782Z,65.1
2024-03-20T10:05:01.915Z,65.1
2024-03-20T10:06:03.665Z,65.7
2024-03-20T10:07:03.753Z,66.1
2024-03-20T10:08:03.257Z,66.1
2024-03-20T10:09:02.965Z,66.2
2024-03-20T10:10:01.456Z,66.8
2024-03-20T10:11:03.186Z,66
2024-03-20T10:12:03.271Z,66.1
2024-03-20T10:13:01.748Z,65.4
2024-03-20T10:14:03.518Z,64.9
2024-03-20T10:15:03.988Z,65.4
2024-03-20T10:16:06.706Z,64.8
2024-03-20T10:17:09.585Z,65.5
2024-03-20T10:18:02.937Z,66.2
2024-03-20T10:19:03.022Z,65.4
2024-03-20T10:20:03.126Z,65
2024-03-20T10:21:03.260Z,64.9
2024-03-20T10:22:01.717Z,65.4
2024-03-20T10:23:01.850Z,65.2
2024-03-20T10:24:03.520Z,64.4
2024-03-20T10:25:03.616Z,64.3
2024-03-20T10:26:02.103Z,64.9
2024-03-20T10:27:05.044Z,64.4
2024-03-20T10:28:01.371Z,64.5
2024-03-20T10:29:03.103Z,64.9
2024-03-20T10:30:03.181Z,64.8
2024-03-20T10:31:03.387Z,64.9
2024-03-20T10:32:01.780Z,63.5
2024-03-20T10:33:03.506Z,64.4
2024-03-20T10:34:03.644Z,64.6
2024-03-20T10:35:02.095Z,64.2
2024-03-20T10:36:02.143Z,63.5
2024-03-20T10:37:02.898Z,64.4
2024-03-20T10:38:01.377Z,64.2
2024-03-20T10:39:12.146Z,65.6
2024-03-20T10:40:01.599Z,64.8
2024-03-20T10:41:03.330Z,64
2024-03-20T10:42:03.446Z,64.7
2024-03-20T10:43:01.901Z,64.5
2024-03-20T10:44:02.004Z,64.3
2024-03-20T10:45:02.134Z,62.8
2024-03-20T10:46:02.228Z,62.5
2024-03-20T10:47:01.324Z,62.6
2024-03-20T10:48:01.414Z,63
2024-03-20T10:49:01.546Z,62.6
2024-03-20T10:50:01.691Z,63.6
2024-03-20T10:51:01.735Z,62.4
2024-03-20T10:52:03.478Z,64.4
2024-03-20T10:53:01.953Z,63.1
2024-03-20T10:54:03.708Z,63.5
2024-03-20T10:55:02.217Z,63.2
2024-03-20T10:56:01.280Z,62.5
2024-03-20T10:57:03.011Z,62
2024-03-20T10:58:03.135Z,62.4
2024-03-20T10:59:01.590Z,62.5
2024-03-20T11:00:03.347Z,61.8
2024-03-20T11:01:03.428Z,61.5
2024-03-20T11:02:03.519Z,60.9
2024-03-20T11:03:02.004Z,61.2
2024-03-20T11:04:02.087Z,60.8
2024-03-20T11:05:02.256Z,60.4
2024-03-20T11:06:01.341Z,60.5
2024-03-20T11:07:03.105Z,60.4
2024-03-20T11:08:03.160Z,61
2024-03-20T11:09:01.650Z,60.9
2024-03-20T11:10:03.403Z,60.9
2024-03-20T11:11:04.982Z,61.3
2024-03-20T11:12:01.930Z,62
2024-03-20T11:13:02.006Z,60.8
2024-03-20T11:14:03.745Z,60.6
2024-03-20T11:15:02.953Z,60.5
2024-03-20T11:16:01.381Z,61.3
2024-03-20T11:17:01.514Z,59.6
2024-03-20T11:18:03.224Z,58.9
2024-03-20T11:19:01.687Z,60.9
2024-03-20T11:20:01.840Z,60
2024-03-20T11:21:03.513Z,59.8
2024-03-20T11:22:02.031Z,58.8
2024-03-20T11:23:03.761Z,59.2
2024-03-20T11:24:02.222Z,58
2024-03-20T11:25:02.935Z,59.4
2024-03-20T11:26:01.415Z,59.4
2024-03-20T11:27:01.549Z,58.5
2024-03-20T11:28:01.640Z,58.9
2024-03-20T11:29:01.735Z,58.5
2024-03-20T11:30:01.839Z,58.9
2024-03-20T11:31:01.947Z,58.8
2024-03-20T11:32:03.698Z,58.3
2024-03-20T11:33:02.152Z,57
2024-03-20T11:34:01.253Z,57.1
2024-03-20T11:35:03.006Z,57.4
2024-03-20T11:36:01.459Z,57.8
2024-03-20T11:37:03.229Z,58.8
2024-03-20T11:38:01.678Z,59.6
2024-03-20T11:39:01.811Z,59.8
2024-03-20T11:40:01.938Z,59
2024-03-20T11:41:02.011Z,59.4
2024-03-20T11:42:03.769Z,59.3
2024-03-20T11:43:03.835Z,62.2
2024-03-20T11:44:01.327Z,60.1
2024-03-20T11:45:01.407Z,59.7
2024-03-20T11:46:03.165Z,59
2024-03-20T11:47:01.639Z,60.9
2024-03-20T11:48:03.398Z,61
2024-03-20T11:49:03.449Z,60.8
2024-03-20T11:50:01.934Z,60.1
2024-03-20T11:51:03.746Z,59.4
2024-03-20T11:52:02.158Z,58.3
2024-03-20T11:53:04.114Z,58.1
2024-03-20T11:54:01.379Z,58.3
2024-03-20T11:55:03.134Z,58.3
2024-03-20T11:56:01.582Z,59.5
2024-03-20T11:57:01.715Z,59.3
2024-03-20T11:58:01.801Z,58.8
2024-03-20T11:59:01.903Z,59.2
2024-03-20T12:00:02.001Z,59.2
2024-03-20T12:01:03.717Z,58.2
2024-03-20T12:02:02.232Z,58.6
2024-03-20T12:03:01.334Z,59
2024-03-20T12:04:01.417Z,59.3
2024-03-20T12:05:03.204Z,62.1
2024-03-20T12:06:03.334Z,60.1
2024-03-20T12:07:03.453Z,59.4
2024-03-20T12:08:03.483Z,61.3
2024-03-20T12:09:03.589Z,61.3
2024-03-20T12:10:02.072Z,60.2
2024-03-20T12:11:02.169Z,60.5
2024-03-20T12:12:01.265Z,60.9
2024-03-20T12:13:01.362Z,60.3
2024-03-20T12:14:01.482Z,60.2
2024-03-20T12:15:01.581Z,61
2024-03-20T12:16:01.711Z,60.8
2024-03-20T12:17:01.795Z,60.9
2024-03-20T12:18:01.899Z,60.8
2024-03-20T12:19:02.031Z,61.9
2024-03-20T12:20:02.123Z,61.7
2024-03-20T12:21:03.889Z,60.4
2024-03-20T12:22:03.008Z,60.7
2024-03-20T12:23:03.060Z,60.8
2024-03-20T12:24:01.571Z,60.9
2024-03-20T12:25:05.899Z,60.9
2024-03-20T12:26:01.740Z,60.6
2024-03-20T12:27:01.862Z,60
2024-03-20T12:28:03.589Z,61.9
2024-03-20T12:29:03.742Z,60.8
2024-03-20T12:30:03.821Z,63
2024-03-20T12:31:02.935Z,62.6
2024-03-20T12:32:01.389Z,61.7
2024-03-20T12:33:01.478Z,62.6
2024-03-20T12:34:03.268Z,60.1
2024-03-20T12:35:03.334Z,58.9
2024-03-20T12:36:03.423Z,60.1
2024-03-20T12:37:03.489Z,63.2
2024-03-20T12:38:02.016Z,60.8
2024-03-20T12:39:03.759Z,63.1
2024-03-20T12:40:03.892Z,61.8
2024-03-20T12:41:01.323Z,60
2024-03-20T12:42:01.431Z,60.2
2024-03-20T12:43:03.157Z,58.4
2024-03-20T12:44:01.602Z,58.9
2024-03-20T12:45:03.405Z,59.3
2024-03-20T12:46:01.876Z,60.4
2024-03-20T12:47:01.919Z,60.2
2024-03-20T12:48:03.660Z,60.2
2024-03-20T12:49:02.143Z,61.5
2024-03-20T12:50:02.943Z,62.2
2024-03-20T12:51:01.396Z,63.1
2024-03-20T12:52:01.483Z,61.7
2024-03-20T12:53:01.623Z,62
2024-03-20T12:54:01.681Z,61.2
2024-03-20T12:55:01.775Z,60.7
2024-03-20T12:56:01.929Z,61.9
2024-03-20T12:57:03.638Z,61.1
2024-03-20T12:58:03.738Z,62
2024-03-20T12:59:02.187Z,60
2024-03-20T13:00:01.301Z,61
2024-03-20T13:01:03.069Z,60.2
2024-03-20T13:02:03.129Z,59.4
2024-03-20T13:03:03.260Z,59.6
2024-03-20T13:04:03.354Z,60.8
2024-03-20T13:05:01.807Z,60.8
2024-03-20T13:06:01.929Z,60.3
2024-03-20T13:07:03.659Z,60.4
2024-03-20T13:08:03.812Z,60.7
2024-03-20T13:09:02.254Z,59.9
2024-03-20T13:10:03.008Z,59.7
2024-03-20T13:11:01.451Z,60.6
2024-03-20T13:12:01.580Z,60.9
2024-03-20T13:13:01.639Z,60.3
2024-03-20T13:14:03.397Z,60.9
2024-03-20T13:15:01.880Z,59.6
2024-03-20T13:16:03.584Z,58.6
2024-03-20T13:17:02.074Z,59.1
2024-03-20T13:18:03.901Z,60
2024-03-20T13:19:01.258Z,60.4
2024-03-20T13:20:03.032Z,60.9
2024-03-20T13:21:01.483Z,60.4
2024-03-20T13:22:01.635Z,60.5
2024-03-20T13:23:01.708Z,59.9
2024-03-20T13:24:01.846Z,60.2
2024-03-20T13:25:01.934Z,60